createdAt,value
2018-12-07T00:01:39.002Z,73.75
2018-12-07T00:04:09.105Z,74.28
2018-12-07T00:06:39.982Z,73.81
2018-12-07T00:09:09.898Z,73.42
2018-12-07T00:11:39.858Z,73.33
2018-12-07T00:14:09.860Z,72.92
2018-12-07T00:16:39.788Z,72.81
2018-12-07T00:19:09.861Z,73.51
2018-12-07T00:21:39.957Z,72.98
2018-12-07T00:24:10.034Z,73.48
2018-12-07T00:26:40.346Z,73.17
2018-12-07T00:29:10.269Z,73.38
2018-12-07T00:31:40.367Z,73.57
2018-12-07T00:34:10.370Z,73.74
2018-12-07T00:36:40.394Z,73.91
2018-12-07T00:39:10.393Z,72.86
2018-12-07T00:41:40.432Z,72.94
2018-12-07T00:44:10.364Z,73.35
2018-12-07T00:46:40.368Z,73.74
2018-12-07T00:49:10.297Z,73.08
2018-12-07T00:51:40.394Z,73.44
2018-12-07T00:54:10.314Z,73.91
2018-12-07T00:56:40.255Z,73.41
2018-12-07T00:59:10.181Z,73.49
2018-12-07T01:01:40.193Z,73.29
2018-12-07T01:04:10.277Z,73.60
2018-12-07T01:06:40.274Z,73.11
2018-12-07T01:09:10.218Z,73.18
2018-12-07T01:11:41.101Z,73.09
2018-12-07T01:14:11.141Z,72.98
2018-12-07T01:16:41.157Z,72.79
2018-12-07T01:19:11.445Z,72.43
2018-12-07T01:21:41.371Z,72.71
2018-12-07T01:24:11.322Z,73.26
2018-12-07T01:26:41.248Z,73.24
2018-12-07T01:29:11.341Z,73.49
2018-12-07T01:31:41.270Z,72.37
2018-12-07T01:34:11.277Z,72.42
2018-12-07T01:36:41.297Z,73.14
2018-12-07T01:42:17.584Z,73.16
2018-12-07T01:50:54.177Z,72.95
2018-12-07T01:53:24.277Z,73.25
2018-12-07T01:55:54.181Z,72.61
2018-12-07T01:58:24.117Z,72.80
2018-12-07T02:00:54.097Z,72.93
2018-12-07T02:03:24.194Z,73.13
2018-12-07T02:05:54.185Z,73.70
2018-12-07T02:08:24.114Z,72.43
2018-12-07T02:10:54.176Z,72.66
2018-12-07T02:13:24.176Z,73.10
2018-12-07T02:15:54.120Z,72.62
2018-12-07T02:18:24.066Z,72.15
2018-12-07T02:20:54.125Z,72.95
2018-12-07T02:23:24.278Z,72.55
2018-12-07T02:25:54.184Z,72.56
2018-12-07T02:28:24.117Z,72.60
2018-12-07T02:30:54.086Z,72.15
2018-12-07T02:33:24.013Z,72.72
2018-12-07T02:35:53.933Z,72.82
2018-12-07T02:38:23.888Z,72.36
2018-12-07T02:41:00.081Z,73.12
2018-12-07T02:43:30.015Z,72.91
2018-12-07T02:45:59.916Z,72.48
2018-12-07T02:48:29.848Z,72.00
2018-12-07T02:50:59.781Z,72.33
2018-12-07T02:53:29.756Z,72.77
2018-12-07T02:55:59.698Z,72.27
2018-12-07T02:58:29.807Z,71.94
2018-12-07T03:00:59.973Z,72.51
2018-12-07T03:03:29.886Z,71.65
2018-12-07T03:05:59.816Z,71.55
2018-12-07T03:08:29.728Z,72.07
2018-12-07T03:10:59.709Z,72.83
2018-12-07T03:13:29.701Z,72.60
2018-12-07T03:15:59.734Z,72.52
2018-12-07T03:18:32.965Z,72.00
2018-12-07T03:21:02.970Z,71.86
2018-12-07T03:23:32.897Z,72.01
2018-12-07T03:26:02.886Z,72.37
2018-12-07T03:28:32.788Z,72.24
2018-12-07T03:31:02.722Z,71.67
2018-12-07T03:33:32.695Z,72.00
2018-12-07T03:36:02.877Z,71.82
2018-12-07T03:38:32.806Z,72.14
2018-12-07T03:41:02.933Z,72.63
2018-12-07T03:43:33.150Z,71.73
2018-12-07T03:46:03.257Z,71.93
2018-12-07T03:48:33.327Z,71.64
2018-12-07T03:51:03.271Z,71.61
2018-12-07T03:53:33.273Z,71.42
2018-12-07T03:56:03.285Z,71.83
2018-12-07T03:58:33.269Z,72.34
2018-12-07T04:01:03.269Z,71.64
2018-12-07T04:03:33.469Z,71.83
2018-12-07T04:06:03.429Z,71.58
2018-12-07T04:08:33.450Z,71.59
2018-12-07T04:11:03.416Z,71.65
2018-12-07T04:13:33.358Z,71.43
2018-12-07T04:16:05.031Z,72.08
2018-12-07T04:18:35.102Z,72.28
2018-12-07T04:21:05.118Z,71.92
2018-12-07T04:23:35.219Z,72.00
2018-12-07T04:26:05.521Z,72.35
2018-12-07T04:28:37.477Z,72.03
2018-12-07T04:31:07.600Z,71.32
2018-12-07T04:33:37.542Z,71.64
2018-12-07T04:36:07.888Z,71.93
2018-12-07T04:38:37.941Z,71.33
2018-12-07T04:41:07.852Z,71.85
2018-12-07T04:43:37.805Z,72.42
2018-12-07T04:46:09.701Z,72.12
2018-12-07T04:48:39.631Z,71.99
2018-12-07T04:51:09.606Z,71.51
2018-12-07T04:53:39.739Z,71.66
2018-12-07T04:56:09.773Z,71.53
2018-12-07T04:58:39.717Z,72.04
2018-12-07T05:01:09.910Z,71.18
2018-12-07T05:03:39.891Z,72.19
2018-12-07T05:06:09.870Z,71.60
2018-12-07T05:08:39.998Z,71.00
2018-12-07T05:11:09.946Z,71.89
2018-12-07T05:13:39.941Z,71.44
2018-12-07T05:16:09.861Z,71.79
2018-12-07T05:18:40.052Z,71.28
2018-12-07T05:21:10.053Z,71.97
2018-12-07T05:23:39.977Z,71.81
2018-12-07T05:26:09.937Z,71.25
2018-12-07T05:28:39.927Z,71.93
2018-12-07T05:31:09.889Z,71.35
2018-12-07T05:33:39.866Z,72.07
2018-12-07T05:36:09.772Z,71.44
2018-12-07T05:38:40.954Z,71.54
2018-12-07T05:41:10.900Z,71.86
2018-12-07T05:43:57.327Z,71.47
2018-12-07T05:46:29.358Z,71.84
2018-12-07T05:48:59.433Z,71.84
2018-12-07T05:51:29.346Z,71.52
2018-12-07T05:53:59.369Z,71.47
2018-12-07T05:56:29.353Z,71.97
2018-12-07T05:58:59.326Z,71.82
2018-12-07T06:01:29.313Z,71.67
2018-12-07T06:03:59.502Z,70.93
2018-12-07T06:06:29.509Z,71.43
2018-12-07T06:08:59.433Z,70.75
2018-12-07T06:11:29.436Z,70.82
2018-12-07T06:13:59.337Z,71.36
2018-12-07T06:16:29.312Z,71.54
2018-12-07T06:18:59.313Z,71.21
2018-12-07T06:21:29.280Z,71.57
2018-12-07T06:23:59.223Z,70.90
2018-12-07T06:26:29.281Z,71.56
2018-12-07T06:28:59.294Z,71.76
2018-12-07T06:31:29.664Z,71.63
2018-12-07T06:33:59.652Z,71.83
2018-12-07T06:36:29.886Z,71.02
2018-12-07T06:38:59.817Z,71.24
2018-12-07T06:41:30.008Z,70.58
2018-12-07T06:44:00.145Z,70.42
2018-12-07T06:46:30.389Z,70.68
2018-12-07T06:49:10.884Z,70.82
2018-12-07T06:51:42.620Z,70.46
2018-12-07T06:54:12.717Z,70.73
2018-12-07T06:56:42.636Z,70.39
2018-12-07T06:59:12.582Z,70.07
2018-12-07T07:01:42.679Z,70.70
2018-12-07T07:04:12.613Z,70.32
2018-12-07T07:06:42.634Z,70.13
2018-12-07T07:09:12.556Z,70.04
2018-12-07T07:11:42.602Z,69.49
2018-12-07T07:14:12.537Z,69.12
2018-12-07T07:16:42.455Z,69.71
2018-12-07T07:19:12.489Z,70.01
2018-12-07T07:21:42.494Z,69.44
2018-12-07T07:24:12.435Z,68.95
2018-12-07T07:26:42.340Z,69.41
2018-12-07T07:29:12.280Z,69.12
2018-12-07T07:31:43.639Z,68.03
2018-12-07T07:34:13.859Z,68.18
2018-12-07T07:36:43.855Z,67.67
2018-12-07T07:39:13.801Z,67.36
2018-12-07T07:41:43.796Z,67.52
2018-12-07T07:44:14.749Z,67.70
2018-12-07T07:46:45.393Z,67.80
2018-12-07T07:49:15.347Z,67.75
2018-12-07T07:51:45.356Z,67.36
2018-12-07T07:54:15.511Z,67.58
2018-12-07T07:56:45.470Z,66.81
2018-12-07T07:59:15.698Z,67.42
2018-12-07T08:01:45.744Z,67.20
2018-12-07T08:07:01.147Z,68.46
2018-12-07T08:09:32.334Z,68.24
2018-12-07T08:12:02.238Z,68.28
2018-12-07T08:14:32.341Z,68.45
2018-12-07T08:17:02.305Z,68.80
2018-12-07T08:19:32.300Z,68.45
2018-12-07T08:22:02.960Z,68.97
2018-12-07T08:24:33.040Z,67.98
2018-12-07T08:27:03.073Z,67.87
2018-12-07T08:29:33.070Z,68.17
2018-12-07T08:32:03.082Z,68.36
2018-12-07T08:34:33.078Z,67.99
2018-12-07T08:37:02.984Z,68.05
2018-12-07T08:39:33.003Z,67.42
2018-12-07T08:42:06.685Z,67.05
2018-12-07T08:44:34.988Z,67.12
2018-12-07T08:47:05.113Z,67.23
2018-12-07T08:49:40.362Z,66.16
2018-12-07T08:52:10.460Z,65.82
2018-12-07T08:54:40.472Z,66.41
2018-12-07T08:57:10.523Z,66.39
2018-12-07T08:59:40.493Z,66.69
2018-12-07T09:02:10.648Z,66.13
2018-12-07T09:04:40.576Z,66.90
2018-12-07T09:07:10.748Z,65.88
2018-12-07T09:09:40.749Z,65.49
2018-12-07T09:12:10.741Z,65.41
2018-12-07T09:14:40.828Z,66.36
2018-12-07T09:17:10.742Z,65.91
2018-12-07T09:19:40.672Z,66.39
2018-12-07T09:22:10.652Z,66.45
2018-12-07T09:24:40.584Z,65.97
2018-12-07T09:29:56.012Z,65.79
2018-12-07T09:32:25.952Z,65.39
2018-12-07T09:34:55.941Z,65.18
2018-12-07T09:37:26.906Z,65.66
2018-12-07T09:39:56.908Z,66.22
2018-12-07T09:42:26.977Z,65.83
2018-12-07T09:44:56.929Z,65.45
2018-12-07T09:47:26.840Z,64.49
2018-12-07T09:49:56.897Z,65.54
2018-12-07T09:52:26.896Z,65.49
2018-12-07T09:54:56.825Z,65.20
2018-12-07T09:57:26.738Z,65.20
2018-12-07T09:59:56.660Z,65.60
2018-12-07T10:02:26.635Z,65.72
2018-12-07T10:04:56.638Z,66.00
2018-12-07T10:07:26.600Z,64.77
2018-12-07T10:09:56.588Z,66.10
2018-12-07T10:12:26.557Z,65.05
2018-12-07T10:14:56.467Z,65.41
2018-12-07T10:17:26.392Z,64.99
2018-12-07T10:19:56.381Z,64.16
2018-12-07T10:22:26.394Z,64.65
2018-12-07T10:24:56.372Z,64.73
2018-12-07T10:27:26.405Z,64.45
2018-12-07T10:29:56.363Z,64.49
2018-12-07T10:32:26.304Z,64.56
2018-12-07T10:34:56.212Z,64.77
2018-12-07T10:37:27.508Z,64.97
2018-12-07T10:39:57.419Z,65.10
2018-12-07T10:42:27.333Z,65.38
2018-12-07T10:44:57.418Z,65.17
2018-12-07T10:47:27.493Z,65.19
2018-12-07T10:49:57.412Z,65.37
2018-12-07T10:52:27.338Z,64.63
2018-12-07T10:54:57.249Z,64.91
2018-12-07T10:57:27.164Z,64.44
2018-12-07T10:59:57.090Z,64.12
2018-12-07T11:02:32.160Z,64.02
2018-12-07T11:05:07.278Z,63.88
2018-12-07T11:07:42.492Z,63.36
2018-12-07T11:10:17.753Z,64.32
2018-12-07T11:13:53.664Z,63.39
2018-12-07T11:16:28.892Z,64.75
2018-12-07T11:19:04.105Z,64.39
2018-12-07T11:21:40.476Z,64.80
2018-12-07T11:24:15.856Z,64.63
2018-12-07T11:26:51.111Z,64.26
2018-12-07T11:29:26.398Z,65.17
2018-12-07T11:32:01.626Z,64.55
2018-12-07T11:37:22.833Z,64.30
2018-12-07T11:39:52.738Z,62.90
2018-12-07T11:42:24.608Z,63.40
2018-12-07T11:44:54.504Z,62.92
2018-12-07T11:47:24.497Z,62.19
2018-12-07T11:49:54.433Z,62.50
2018-12-07T11:52:24.336Z,63.13
2018-12-07T11:54:54.252Z,62.36
2018-12-07T11:57:24.309Z,61.39
2018-12-07T11:59:54.207Z,62.40
2018-12-07T12:02:26.447Z,61.56
2018-12-07T12:04:56.065Z,62.21
2018-12-07T12:07:25.980Z,61.45
2018-12-07T12:09:55.888Z,61.32
2018-12-07T12:12:27.805Z,61.50
2018-12-07T12:14:57.718Z,61.28
2018-12-07T12:17:27.645Z,61.47
2018-12-07T12:19:57.657Z,61.36
2018-12-07T12:22:27.637Z,62.45
2018-12-07T12:24:57.557Z,61.75
2018-12-07T12:27:27.469Z,61.81
2018-12-07T12:29:57.444Z,61.63
2018-12-07T12:32:27.437Z,61.34
2018-12-07T12:34:57.418Z,61.68
2018-12-07T12:37:28.362Z,61.78
2018-12-07T12:39:58.476Z,61.08
2018-12-07T12:42:28.472Z,61.31
2018-12-07T12:44:58.558Z,61.17
2018-12-07T12:47:28.694Z,61.78
2018-12-07T12:49:58.660Z,61.33
2018-12-07T12:52:28.572Z,61.15
2018-12-07T12:54:58.510Z,61.20
2018-12-07T12:57:28.464Z,61.57
2018-12-07T12:59:58.990Z,62.20
2018-12-07T13:02:29.049Z,62.09
2018-12-07T13:04:58.997Z,62.64
2018-12-07T13:07:28.916Z,62.96
2018-12-07T13:09:58.901Z,61.84
2018-12-07T13:12:28.872Z,62.57
2018-12-07T13:17:36.788Z,62.75
2018-12-07T13:20:08.780Z,62.94
2018-12-07T13:22:40.212Z,63.22
2018-12-07T13:25:10.189Z,62.85
2018-12-07T13:27:40.099Z,62.98
2018-12-07T13:30:10.149Z,63.42
2018-12-07T13:32:40.137Z,62.92
2018-12-07T13:37:55.708Z,63.38
2018-12-07T13:40:25.647Z,63.23
2018-12-07T13:45:34.951Z,63.72
2018-12-07T13:48:06.918Z,62.99
2018-12-07T13:50:41.885Z,63.23
2018-12-07T13:53:13.162Z,63.11
2018-12-07T13:55:43.252Z,62.19
2018-12-07T13:58:15.201Z,63.20
2018-12-07T14:00:45.308Z,62.20
2018-12-07T14:03:15.323Z,62.31
2018-12-07T14:05:45.471Z,62.72
2018-12-07T14:08:15.490Z,62.76
2018-12-07T14:10:45.785Z,62.00
2018-12-07T14:13:15.949Z,62.13
2018-12-07T14:15:46.127Z,62.20
2018-12-07T14:18:16.126Z,62.02
2018-12-07T14:20:46.101Z,62.09
2018-12-07T14:23:16.393Z,61.79
2018-12-07T14:25:46.512Z,62.00
2018-12-07T14:28:16.821Z,62.13
2018-12-07T14:30:46.752Z,62.06
2018-12-07T14:33:16.877Z,61.63
2018-12-07T14:35:46.914Z,61.79
2018-12-07T14:38:18.165Z,61.78
2018-12-07T14:40:48.114Z,62.02
2018-12-07T14:43:19.157Z,61.81
2018-12-07T14:45:49.187Z,61.35
2018-12-07T14:48:19.210Z,61.25
2018-12-07T14:50:49.253Z,61.83
2018-12-07T14:53:19.459Z,61.82
2018-12-07T14:55:49.688Z,60.92
2018-12-07T14:58:19.724Z,62.25
2018-12-07T15:00:49.933Z,61.42
2018-12-07T15:03:19.983Z,61.04
2018-12-07T15:05:51.724Z,61.42
2018-12-07T15:08:21.698Z,62.24
2018-12-07T15:10:51.685Z,62.10
2018-12-07T15:13:21.783Z,61.87
2018-12-07T15:15:51.974Z,61.63
2018-12-07T15:18:22.135Z,61.97
2018-12-07T15:20:52.179Z,62.17
2018-12-07T15:23:22.129Z,62.14
2018-12-07T15:25:56.640Z,61.13
2018-12-07T15:28:26.762Z,60.85
2018-12-07T15:30:56.807Z,60.64
2018-12-07T15:33:27.119Z,61.77
2018-12-07T15:35:57.185Z,61.57
2018-12-07T15:38:27.195Z,60.92
2018-12-07T15:40:57.361Z,60.27
2018-12-07T15:43:27.438Z,60.55
2018-12-07T15:45:57.409Z,60.17
2018-12-07T15:48:27.539Z,60.72
2018-12-07T15:50:57.512Z,60.20
2018-12-07T15:53:27.619Z,60.08
2018-12-07T15:55:57.743Z,60.21
2018-12-07T15:58:27.809Z,59.06
2018-12-07T16:00:58.069Z,59.52
2018-12-07T16:03:28.196Z,60.38
2018-12-07T16:05:58.224Z,59.75
2018-12-07T16:08:28.299Z,59.44
2018-12-07T16:10:58.481Z,59.57
2018-12-07T16:13:28.689Z,58.58
2018-12-07T16:15:58.639Z,59.71
2018-12-07T16:18:28.671Z,59.12
2018-12-07T16:20:58.860Z,59.88
2018-12-07T16:23:28.958Z,59.39
2018-12-07T16:25:59.194Z,59.37
2018-12-07T16:28:29.281Z,59.91
2018-12-07T16:30:59.617Z,59.70
2018-12-07T16:33:29.985Z,58.90
2018-12-07T16:36:00.064Z,58.25
2018-12-07T16:38:30.109Z,58.92
2018-12-07T16:41:00.143Z,59.24
2018-12-07T16:43:30.071Z,59.50
2018-12-07T16:46:00.077Z,58.81
2018-12-07T16:48:30.269Z,59.56
2018-12-07T16:51:00.449Z,59.23
2018-12-07T16:53:31.169Z,58.40
2018-12-07T16:56:01.269Z,59.38
2018-12-07T16:58:31.281Z,58.74
2018-12-07T17:01:01.214Z,57.68
2018-12-07T17:03:31.317Z,58.95
2018-12-07T17:06:01.329Z,58.89
2018-12-07T17:08:31.620Z,59.55
2018-12-07T17:11:01.992Z,58.62
2018-12-07T17:13:32.035Z,59.68
2018-12-07T17:16:02.258Z,59.82
2018-12-07T17:18:32.339Z,59.06
2018-12-07T17:21:02.623Z,59.20
2018-12-07T17:23:32.602Z,59.08
2018-12-07T17:26:02.728Z,59.69
2018-12-07T17:28:33.695Z,59.27
2018-12-07T17:31:03.980Z,59.19
2018-12-07T17:33:34.018Z,58.95
2018-12-07T17:36:06.663Z,59.21
2018-12-07T17:38:36.782Z,59.29
2018-12-07T17:41:06.785Z,58.59
2018-12-07T17:43:36.764Z,58.68
2018-12-07T17:46:06.793Z,59.56
2018-12-07T17:48:36.977Z,59.18
2018-12-07T17:51:07.013Z,59.76
2018-12-07T17:53:37.344Z,60.08
2018-12-07T17:56:07.551Z,60.34
2018-12-07T17:58:37.789Z,60.06
2018-12-07T18:01:07.989Z,61.14
2018-12-07T18:03:39.905Z,61.04
2018-12-07T18:06:09.897Z,61.29
2018-12-07T18:08:40.118Z,61.25
2018-12-07T18:11:10.395Z,61.29
2018-12-07T18:16:25.651Z,62.65
2018-12-07T18:18:55.672Z,61.92
2018-12-07T18:21:25.681Z,61.22
2018-12-07T18:23:55.948Z,61.71
2018-12-07T18:26:26.129Z,62.24
2018-12-07T18:28:56.469Z,62.02
2018-12-07T18:31:26.588Z,62.02
2018-12-07T18:33:56.711Z,62.88
2018-12-07T18:36:26.892Z,62.61
2018-12-07T18:38:56.861Z,62.42
2018-12-07T18:41:27.116Z,63.12
2018-12-07T18:43:57.242Z,63.79
2018-12-07T18:46:27.204Z,63.55
2018-12-07T18:48:57.130Z,63.46
2018-12-07T18:51:27.198Z,64.48
2018-12-07T18:53:57.393Z,64.67
2018-12-07T18:56:27.547Z,64.92
2018-12-07T18:58:57.521Z,64.84
2018-12-07T19:01:27.669Z,65.09
2018-12-07T19:03:57.846Z,66.23
2018-12-07T19:06:28.117Z,64.92
2018-12-07T19:08:58.074Z,65.97
2018-12-07T19:11:28.112Z,66.45
2018-12-07T19:13:58.124Z,66.85
2018-12-07T19:16:28.276Z,66.54
2018-12-07T19:18:58.310Z,67.21
2018-12-07T19:21:28.579Z,67.16
2018-12-07T19:23:59.994Z,67.78
2018-12-07T19:26:30.069Z,66.65
2018-12-07T19:29:00.051Z,67.37
2018-12-07T19:31:30.230Z,68.47
2018-12-07T19:34:00.277Z,68.54
2018-12-07T19:36:30.296Z,68.16
2018-12-07T19:39:00.314Z,68.00
2018-12-07T19:41:30.264Z,67.71
2018-12-07T19:44:00.448Z,67.97
2018-12-07T19:46:30.479Z,67.88
2018-12-07T19:49:00.564Z,68.05
2018-12-07T19:51:30.575Z,67.89
2018-12-07T19:54:00.704Z,68.74
2018-12-07T19:56:30.912Z,68.28
2018-12-07T19:59:00.964Z,68.48
2018-12-07T20:01:31.118Z,68.04
2018-12-07T20:04:01.319Z,68.69
2018-12-07T20:06:31.401Z,69.24
2018-12-07T20:09:01.352Z,69.16
2018-12-07T20:11:33.130Z,70.76
2018-12-07T20:14:03.702Z,70.52
2018-12-07T20:16:34.143Z,68.84
2018-12-07T20:19:04.510Z,66.83
2018-12-07T20:21:34.734Z,67.52
2018-12-07T20:24:04.862Z,67.54
2018-12-07T20:26:37.459Z,67.86
2018-12-07T20:29:07.775Z,67.82
2018-12-07T20:31:37.873Z,68.27
2018-12-07T20:34:07.772Z,68.70
2018-12-07T20:36:37.759Z,69.91
2018-12-07T20:39:08.524Z,68.85
2018-12-07T20:41:39.517Z,68.82
2018-12-07T20:44:09.585Z,68.34
2018-12-07T20:46:39.584Z,68.29
2018-12-07T20:49:09.695Z,68.47
2018-12-07T20:51:40.121Z,68.43
2018-12-07T20:54:10.155Z,67.78
2018-12-07T20:56:40.401Z,67.19
2018-12-07T20:59:10.640Z,68.31
2018-12-07T21:01:40.648Z,67.58
2018-12-07T21:04:29.887Z,67.80
2018-12-07T21:09:27.704Z,67.95
2018-12-07T21:12:17.561Z,68.95
2018-12-07T21:14:51.694Z,68.76
2018-12-07T21:17:29.786Z,67.13
2018-12-07T21:20:30.894Z,68.87
2018-12-07T21:23:00.823Z,68.51
2018-12-07T21:25:31.059Z,68.49
2018-12-07T21:28:01.338Z,67.64
2018-12-07T21:31:03.493Z,67.70
2018-12-07T21:33:47.893Z,67.51
2018-12-07T21:40:29.257Z,67.43
2018-12-07T21:42:59.255Z,66.86
2018-12-07T21:45:29.746Z,67.23
2018-12-07T21:48:22.484Z,67.05
2018-12-07T21:51:20.645Z,66.41
2018-12-07T21:53:51.043Z,65.88
2018-12-07T21:59:09.922Z,66.39
2018-12-07T22:01:40.040Z,65.58
2018-12-07T22:04:10.130Z,65.37
2018-12-07T22:06:40.418Z,66.31
2018-12-07T22:09:10.955Z,65.14
2018-12-07T22:11:43.055Z,66.60
2018-12-07T22:14:13.138Z,66.35
2018-12-07T22:16:43.604Z,66.87
2018-12-07T22:19:13.861Z,66.99
2018-12-07T22:21:44.242Z,67.41
2018-12-07T22:24:14.321Z,66.84
2018-12-07T22:26:44.237Z,65.51
2018-12-07T22:29:14.307Z,64.61
2018-12-07T22:31:44.497Z,65.52
2018-12-07T22:34:14.573Z,66.06
2018-12-07T22:36:44.666Z,65.48
2018-12-07T22:39:14.625Z,66.60
2018-12-07T22:41:44.616Z,65.14
2018-12-07T22:44:14.558Z,64.59
2018-12-07T22:46:44.709Z,64.33
2018-12-07T22:49:14.685Z,64.81
2018-12-07T22:51:44.665Z,64.82
2018-12-07T22:54:14.676Z,64.31
2018-12-07T22:56:44.614Z,64.40
2018-12-07T22:59:14.614Z,64.34
2018-12-07T23:01:44.679Z,63.98
2018-12-07T23:04:14.688Z,63.76
2018-12-07T23:06:44.667Z,63.06
2018-12-07T23:09:14.700Z,62.98
2018-12-07T23:11:44.669Z,62.98
2018-12-07T23:14:14.716Z,63.02
2018-12-07T23:16:44.722Z,62.84
2018-12-07T23:19:14.761Z,61.81
2018-12-07T23:21:44.738Z,62.54
2018-12-07T23:24:14.701Z,62.47
2018-12-07T23:26:44.605Z,62.43
2018-12-07T23:29:23.056Z,63.05
2018-12-07T23:31:53.187Z,63.41
2018-12-07T23:34:23.168Z,62.49
2018-12-07T23:36:53.152Z,62.42
2018-12-07T23:39:23.092Z,63.09
2018-12-07T23:41:53.029Z,62.85
2018-12-07T23:44:23.533Z,62.53
2018-12-07T23:46:54.985Z,63.04
2018-12-07T23:49:25.073Z,63.47
2018-12-07T23:51:55.104Z,63.98
2018-12-07T23:54:25.025Z,64.65
2018-12-07T23:56:55.000Z,64.05
2018-12-07T23:59:24.921Z,63.85
